Strathbogie, Victoria

4:37 AM AEDT on February 15, 2016 (GMT +1100)
Mansfield | | Change Station
CLOSE
Current Station
Personal Weather Station
Location: Mansfield, VIC
Elevation: 1076 ft
Nearby Weather Stations

Elev 1076 ft 37.07 °S, 146.04 °E | Updated 27 seconds ago

Clear
Clear
60.0 °F
Feels Like 60.0 °F
N
3.5
Wind Variable Wind from South
Gusts 3.5 mph

Today
High -- | Low -- °F
--% Chance of Precip.
Yesterday
High -- | Low -- °F
Precip. -- in
Pressure 29.86 in
Visibility 6.2 miles
Clouds
Dew Point 50 °F
Humidity 70%
Rainfall 0.00 in
Snow Depth Not available.
6:47 AM 8:14 PM
Waxing Crescent, 43% visible
METAR YWGT 141700Z AUTO 10004KT 9999 // NCD 14/07 Q1011
Pressure 29.86 in
Visibility 6.2 miles
Clouds
Dew Point 50 °F
Humidity 70%
Rainfall 0.00 in
Snow Depth Not available.
6:47 AM 8:14 PM
Waxing Crescent, 43% visible
METAR YWGT 141700Z AUTO 10004KT 9999 // NCD 14/07 Q1011

10-Day Weather Forecast

Almanac

Astronomy

Feb. 15, 2016 Rise Set
Actual Time
Civil Twilight
Nautical Twilight
Astronomical Twilight
Moon
Length of Visible Light
Length of Day
Tomorrow will be .
, % of the Moon is Illuminated

Today's Extremes

Country Highs Country Lows

Community

WunderPhotos

Upload Photos

1,892,859 photos uploaded!

WunderBlog® & News

Nearby

Air Quality

  Air Quality AQ Index Pollutant
Not available.

Snow Depth

Station Depth Elevation

Earthquake Activity

City Distance Mag. Time & Date
Minimum magnitude displayed is 2.5.

Coastal Water Temperatures

Place Temperature

Stations

Nearby Weather Stations

Station Location Temp. Windchill Dew Point Humidity Wind Precip. Elev Updated Type